| time (UTC) | temp C | wind direction | speed KPH | gust KPH | rain 1hr cm | rain 24hr cm | rain mn cm | humidity % | barometer mb |
| 20260507140340 | 5 | 126 | 4.8 | 4.8 | 0.00 | 0.00 | 0.00 | 57 | 1013.7 |
| 20260507135838 | 4 | 130 | 3.2 | 4.8 | 0.00 | 0.00 | 0.00 | 59 | 1013.9 |
| 20260507135334 | 4 | 180 | 3.2 | 4.8 | 0.00 | 0.00 | 0.00 | 59 | 1013.8 |
| 20260507134832 | 4 | 331 | 0.0 | 3.2 | 0.00 | 0.00 | 0.00 | 59 | 1013.8 |
| 20260507134327 | 5 | 98 | 0.0 | 4.8 | 0.00 | 0.00 | 0.00 | 60 | 1013.7 |
| 20260507133824 | 3 | 63 | 3.2 | 6.4 | 0.00 | 0.00 | 0.00 | 63 | 1013.7 |
| 20260507133319 | 2 | 29 | 0.0 | 4.8 | 0.00 | 0.00 | 0.00 | 64 | 1013.6 |
| 20260507132818 | 2 | 132 | 3.2 | 3.2 | 0.00 | 0.00 | 0.00 | 65 | 1013.6 |
| 20260507132314 | 1 | 257 | 1.6 | 3.2 | 0.00 | 0.00 | 0.00 | 66 | 1013.7 |
| 20260507131811 | 1 | 345 | 0.0 | 3.2 | 0.00 | 0.00 | 0.00 | 68 | 1013.7 |
| 20260507131308 | 1 | 195 | 0.0 | 3.2 | 0.00 | 0.00 | 0.00 | 67 | 1013.8 |
| 20260507130804 | 1 | 120 | 1.6 | 3.2 | 0.00 | 0.00 | 0.00 | 65 | 1013.8 |
| 20260507130302 | 2 | 121 | 3.2 | 3.2 | 0.00 | 0.00 | 0.00 | 62 | 1013.7 |
| 20260507125801 | 1 | 75 | 0.0 | 1.6 | 0.00 | 0.00 | 0.00 | 65 | 1013.5 |
| 20260507125258 | 1 | 90 | 0.0 | 4.8 | 0.00 | 0.00 | 0.00 | 67 | 1013.5 |
| 20260507124755 | 0 | 140 | 1.6 | 1.6 | 0.00 | 0.00 | 0.00 | 69 | 1013.6 |
| 20260507124251 | 0 | 6 | 0.0 | 3.2 | 0.00 | 0.00 | 0.00 | 71 | 1013.7 |
| 20260507123750 | 0 | 157 | 0.0 | 1.6 | 0.00 | 0.00 | 0.00 | 70 | 1013.3 |
| 20260507123247 | -1 | 180 | 0.0 | 3.2 | 0.00 | 0.00 | 0.00 | 73 | 1013.4 |
| 20260507122742 | -2 | 215 | 0.0 | 3.2 | 0.00 | 0.00 | 0.00 | 73 | 1013.3 |
| 20260507122238 | -2 | 152 | 3.2 | 3.2 | 0.00 | 0.00 | 0.00 | 74 | 1013.2 |
| 20260507121734 | -2 | 157 | 0.0 | 3.2 | 0.00 | 0.00 | 0.00 | 76 | 1013.5 |
| 20260507121230 | -3 | 172 | 0.0 | 3.2 | 0.00 | 0.00 | 0.00 | 78 | 1013.2 |
| 20260507120726 | -3 | 5 | 0.0 | 1.6 | 0.00 | 0.00 | 0.00 | 78 | 1013.1 |
| 20260507120224 | -3 | 186 | 1.6 | 3.2 | 0.00 | 0.00 | 0.00 | 78 | 1013.1 |
| 20260507115720 | -3 | 180 | 0.0 | 0.0 | 0.00 | 0.00 | 0.00 | 79 | 1012.8 |
| 20260507115216 | -3 | 180 | 0.0 | 3.2 | 0.00 | 0.00 | 0.00 | 78 | 1012.9 |
| 20260507114711 | -3 | 148 | 0.0 | 0.0 | 0.00 | 0.00 | 0.00 | 78 | 1013.1 |
| 20260507114209 | -3 | 0 | 0.0 | 0.0 | 0.00 | 0.00 | 0.00 | 79 | 1012.8 |
| 20260507113706 | -3 | 4 | 3.2 | 4.8 | 0.00 | 0.00 | 0.00 | 79 | 1012.8 |
| 20260507113203 | -3 | 337 | 0.0 | 3.2 | 0.00 | 0.00 | 0.00 | 79 | 1012.8 |
| 20260507112701 | -3 | 357 | 3.2 | 8.0 | 0.00 | 0.00 | 0.00 | 79 | 1012.8 |
| 20260507112157 | -3 | 353 | 4.8 | 8.0 | 0.00 | 0.00 | 0.00 | 79 | 1013.1 |
| 20260507111655 | -3 | 337 | 6.4 | 6.4 | 0.00 | 0.00 | 0.00 | 79 | 1013.1 |
| 20260507111152 | -3 | 342 | 9.7 | 9.7 | 0.00 | 0.00 | 0.00 | 79 | 1012.9 |
| 20260507110647 | -3 | 354 | 4.8 | 8.0 | 0.00 | 0.00 | 0.00 | 79 | 1012.8 |
| 20260507110144 | -3 | 21 | 3.2 | 6.4 | 0.00 | 0.00 | 0.00 | 79 | 1012.8 |
| 20260507105641 | -3 | 337 | 4.8 | 8.0 | 0.00 | 0.00 | 0.00 | 79 | 1012.8 |
| 20260507105137 | -3 | 329 | 6.4 | 8.0 | 0.00 | 0.00 | 0.00 | 79 | 1012.7 |
| 20260507104634 | -3 | 352 | 4.8 | 8.0 | 0.00 | 0.00 | 0.00 | 80 | 1012.8 |
| 20260507104131 | -3 | 343 | 6.4 | 6.4 | 0.00 | 0.00 | 0.00 | 79 | 1012.8 |
| 20260507103627 | -3 | 353 | 3.2 | 4.8 | 0.00 | 0.00 | 0.00 | 79 | 1012.8 |
| 20260507103124 | -3 | 355 | 1.6 | 4.8 | 0.00 | 0.00 | 0.00 | 78 | 1012.8 |
| 20260507102621 | -3 | 13 | 4.8 | 8.0 | 0.00 | 0.00 | 0.00 | 78 | 1012.6 |
| 20260507102117 | -3 | 0 | 4.8 | 6.4 | 0.00 | 0.00 | 0.00 | 78 | 1012.7 |
| 20260507101613 | -3 | 14 | 3.2 | 6.4 | 0.00 | 0.00 | 0.00 | 79 | 1012.9 |
| 20260507101109 | -3 | 42 | 4.8 | 6.4 | 0.00 | 0.00 | 0.00 | 77 | 1012.7 |
| 20260507100606 | -3 | 67 | 3.2 | 3.2 | 0.00 | 0.00 | 0.00 | 78 | 1012.6 |
| 20260507100104 | -3 | 19 | 3.2 | 4.8 | 0.00 | 0.00 | 0.00 | 78 | 1012.7 |
| 20260507095602 | -3 | 21 | 3.2 | 4.8 | 0.00 | 0.00 | 0.00 | 78 | 1012.7 |
| 20260507095058 | -3 | 63 | 3.2 | 6.4 | 0.00 | 0.00 | 0.00 | 77 | 1012.7 |
| 20260507094553 | -2 | 39 | 8.0 | 8.0 | 0.00 | 0.00 | 0.00 | 76 | 1012.8 |
| 20260507094046 | -2 | 14 | 1.6 | 4.8 | 0.00 | 0.00 | 0.00 | 76 | 1012.8 |
| 20260507093543 | -2 | 24 | 3.2 | 4.8 | 0.00 | 0.00 | 0.00 | 76 | 1012.9 |
| 20260507093042 | -2 | 26 | 3.2 | 4.8 | 0.00 | 0.00 | 0.00 | 76 | 1012.8 |
| 20260507092537 | -2 | 45 | 0.0 | 3.2 | 0.00 | 0.00 | 0.00 | 77 | 1012.7 |
| 20260507092035 | -2 | 0 | 1.6 | 3.2 | 0.00 | 0.00 | 0.00 | 77 | 1012.6 |
| 20260507091531 | -2 | 28 | 0.0 | 3.2 | 0.00 | 0.00 | 0.00 | 78 | 1012.8 |
| 20260507091027 | -3 | 45 | 3.2 | 4.8 | 0.00 | 0.00 | 0.00 | 79 | 1012.6 |
| 20260507090523 | -3 | 0 | 3.2 | 4.8 | 0.00 | 0.00 | 0.00 | 78 | 1012.8 |
| 20260507090020 | -3 | 12 | 3.2 | 4.8 | 0.00 | 0.00 | 0.00 | 78 | 1012.8 |
| 20260507085518 | -3 | 52 | 4.8 | 6.4 | 0.00 | 0.00 | 0.00 | 79 | 1012.8 |
| 20260507085014 | -3 | 42 | 4.8 | 4.8 | 0.00 | 0.00 | 0.00 | 78 | 1012.7 |
| 20260507084511 | -3 | 18 | 1.6 | 4.8 | 0.00 | 0.00 | 0.00 | 79 | 1012.9 |
| 20260507084008 | -3 | 29 | 0.0 | 0.0 | 0.00 | 0.00 | 0.00 | 79 | 1012.5 |
| 20260507083504 | -3 | 26 | 0.0 | 3.2 | 0.00 | 0.00 | 0.00 | 78 | 1012.7 |
| 20260507083001 | -3 | 38 | 3.2 | 4.8 | 0.00 | 0.00 | 0.00 | 78 | 1012.8 |
| 20260507082457 | -3 | 66 | 0.0 | 3.2 | 0.00 | 0.00 | 0.00 | 79 | 1012.7 |
| 20260507081953 | -3 | 98 | 0.0 | 3.2 | 0.00 | 0.00 | 0.00 | 79 | 1012.7 |
| 20260507081450 | -4 | 111 | 0.0 | 3.2 | 0.00 | 0.00 | 0.00 | 79 | 1012.8 |
| 20260507080947 | -3 | 209 | 0.0 | 1.6 | 0.00 | 0.00 | 0.00 | 78 | 1012.9 |
| 20260507080442 | -3 | 180 | 0.0 | 1.6 | 0.00 | 0.00 | 0.00 | 78 | 1013.1 |
| 20260507075938 | -3 | 180 | 0.0 | 0.0 | 0.00 | 0.00 | 0.00 | 79 | 1012.9 |
| 20260507075435 | -3 | 180 | 0.0 | 3.2 | 0.00 | 0.00 | 0.00 | 78 | 1013.1 |
| 20260507074931 | -3 | 203 | 1.6 | 3.2 | 0.00 | 0.00 | 0.00 | 78 | 1012.9 |
| 20260507074428 | -3 | 180 | 0.0 | 3.2 | 0.00 | 0.00 | 0.00 | 78 | 1013.2 |
| 20260507073926 | -3 | 192 | 1.6 | 3.2 | 0.00 | 0.00 | 0.00 | 78 | 1013.2 |
| 20260507073422 | -3 | 225 | 3.2 | 3.2 | 0.00 | 0.00 | 0.00 | 78 | 1013.2 |
| 20260507072919 | -3 | 199 | 3.2 | 3.2 | 0.00 | 0.00 | 0.00 | 77 | 1013.1 |
| 20260507072417 | -3 | 195 | 3.2 | 3.2 | 0.00 | 0.00 | 0.00 | 77 | 1013.2 |
| 20260507071914 | -3 | 176 | 3.2 | 3.2 | 0.00 | 0.00 | 0.00 | 76 | 1013.2 |
| 20260507071411 | -3 | 157 | 0.0 | 1.6 | 0.00 | 0.00 | 0.00 | 76 | 1013.2 |
| 20260507070907 | -2 | 164 | 0.0 | 1.6 | 0.00 | 0.00 | 0.00 | 75 | 1013.2 |
| 20260507070405 | -2 | 166 | 0.0 | 1.6 | 0.00 | 0.00 | 0.00 | 75 | 1013.2 |
| 20260507065901 | -2 | 151 | 0.0 | 0.0 | 0.00 | 0.00 | 0.00 | 75 | 1013.2 |
| 20260507065358 | -2 | 157 | 0.0 | 1.6 | 0.00 | 0.00 | 0.00 | 76 | 1013.5 |
| 20260507064855 | -3 | 168 | 0.0 | 0.0 | 0.00 | 0.00 | 0.00 | 77 | 1013.3 |
| 20260507064354 | -3 | 194 | 0.0 | 0.0 | 0.00 | 0.00 | 0.00 | 77 | 1013.4 |
| 20260507063851 | -3 | 180 | 0.0 | 3.2 | 0.00 | 0.00 | 0.00 | 77 | 1013.4 |
| 20260507063348 | -2 | 198 | 0.0 | 4.8 | 0.00 | 0.00 | 0.00 | 76 | 1013.5 |
| 20260507062845 | -2 | 210 | 3.2 | 6.4 | 0.00 | 0.00 | 0.00 | 75 | 1013.4 |
| 20260507062341 | -2 | 200 | 1.6 | 3.2 | 0.00 | 0.00 | 0.00 | 74 | 1013.3 |
| 20260507061839 | -2 | 180 | 1.6 | 1.6 | 0.00 | 0.00 | 0.00 | 74 | 1013.5 |
| 20260507061337 | -2 | 180 | 1.6 | 1.6 | 0.00 | 0.00 | 0.00 | 74 | 1013.4 |
| 20260507060836 | -2 | 184 | 0.0 | 3.2 | 0.00 | 0.00 | 0.00 | 74 | 1013.4 |
| 20260507060332 | -2 | 198 | 1.6 | 3.2 | 0.00 | 0.00 | 0.00 | 74 | 1013.4 |
| 20260507055829 | -1 | 201 | 3.2 | 4.8 | 0.00 | 0.00 | 0.00 | 73 | 1013.5 |
| 20260507055324 | -1 | 209 | 0.0 | 3.2 | 0.00 | 0.00 | 0.00 | 74 | 1013.5 |
| 20260507054821 | -1 | 206 | 3.2 | 4.8 | 0.00 | 0.00 | 0.00 | 73 | 1013.5 |
| 20260507054316 | -1 | 192 | 1.6 | 3.2 | 0.00 | 0.00 | 0.00 | 72 | 1013.6 |
| 20260507053814 | -1 | 194 | 1.6 | 1.6 | 0.00 | 0.00 | 0.00 | 71 | 1013.6 |
| 20260507053312 | -1 | 203 | 1.6 | 3.2 | 0.00 | 0.00 | 0.00 | 71 | 1013.6 |
| 20260507052811 | -1 | 180 | 0.0 | 3.2 | 0.00 | 0.00 | 0.00 | 70 | 1013.5 |
| 20260507052307 | -1 | 173 | 1.6 | 1.6 | 0.00 | 0.00 | 0.00 | 71 | 1013.7 |
| 20260507051805 | -1 | 169 | 0.0 | 3.2 | 0.00 | 0.00 | 0.00 | 71 | 1013.8 |
| 20260507051302 | -1 | 157 | 0.0 | 1.6 | 0.00 | 0.00 | 0.00 | 70 | 1013.6 |
| 20260507050759 | 0 | 180 | 0.0 | 3.2 | 0.00 | 0.00 | 0.00 | 69 | 1013.6 |
| 20260507050255 | 0 | 175 | 0.0 | 3.2 | 0.00 | 0.00 | 0.00 | 69 | 1013.7 |
| 20260507045752 | 0 | 172 | 3.2 | 3.2 | 0.00 | 0.00 | 0.00 | 67 | 1013.6 |
| 20260507045249 | 0 | 160 | 0.0 | 1.6 | 0.00 | 0.00 | 0.00 | 66 | 1013.7 |
| 20260507044746 | 0 | 36 | 0.0 | 3.2 | 0.00 | 0.00 | 0.00 | 66 | 1014.0 |
| 20260507044242 | 1 | 173 | 0.0 | 0.0 | 0.00 | 0.00 | 0.00 | 65 | 1013.7 |
| 20260507043738 | 1 | 157 | 0.0 | 1.6 | 0.00 | 0.00 | 0.00 | 65 | 1013.8 |
| 20260507043235 | 1 | 180 | 1.6 | 1.6 | 0.00 | 0.00 | 0.00 | 66 | 1013.6 |
| 20260507042731 | 1 | 151 | 0.0 | 1.6 | 0.00 | 0.00 | 0.00 | 64 | 1013.8 |
| 20260507042226 | 1 | 173 | 0.0 | 1.6 | 0.00 | 0.00 | 0.00 | 63 | 1013.9 |
| 20260507041724 | 2 | 173 | 0.0 | 0.0 | 0.00 | 0.00 | 0.00 | 63 | 1013.9 |
| 20260507041221 | 2 | 180 | 0.0 | 1.6 | 0.00 | 0.00 | 0.00 | 62 | 1013.9 |
| 20260507040718 | 2 | 165 | 0.0 | 1.6 | 0.00 | 0.00 | 0.00 | 63 | 1014.0 |
| 20260507040214 | 2 | 120 | 0.0 | 3.2 | 0.00 | 0.00 | 0.00 | 63 | 1014.0 |
| 20260507035710 | 2 | 154 | 0.0 | 0.0 | 0.00 | 0.00 | 0.00 | 62 | 1014.1 |
| 20260507035205 | 2 | 160 | 1.6 | 3.2 | 0.00 | 0.00 | 0.00 | 61 | 1014.2 |
| 20260507034702 | 2 | 186 | 0.0 | 0.0 | 0.00 | 0.00 | 0.00 | 62 | 1014.0 |
| 20260507034200 | 2 | 186 | 0.0 | 1.6 | 0.00 | 0.00 | 0.00 | 61 | 1014.0 |
| 20260507033658 | 3 | 180 | 3.2 | 4.8 | 0.00 | 0.00 | 0.00 | 59 | 1014.1 |
| 20260507033155 | 3 | 166 | 1.6 | 3.2 | 0.00 | 0.00 | 0.00 | 58 | 1014.0 |
| 20260507032653 | 3 | 66 | 1.6 | 1.6 | 0.00 | 0.00 | 0.00 | 57 | 1014.1 |
| 20260507032148 | 3 | 145 | 0.0 | 0.0 | 0.00 | 0.00 | 0.00 | 57 | 1014.3 |
| 20260507031645 | 3 | 145 | 0.0 | 1.6 | 0.00 | 0.00 | 0.00 | 56 | 1014.2 |
| 20260507031142 | 4 | 140 | 0.0 | 3.2 | 0.00 | 0.00 | 0.00 | 56 | 1014.2 |
| 20260507030639 | 5 | 83 | 1.6 | 3.2 | 0.00 | 0.00 | 0.00 | 52 | 1014.2 |
| 20260507030137 | 5 | 90 | 3.2 | 4.8 | 0.00 | 0.00 | 0.00 | 51 | 1014.0 |
| 20260507025633 | 5 | 86 | 4.8 | 6.4 | 0.00 | 0.00 | 0.00 | 51 | 1014.1 |
| 20260507025130 | 5 | 69 | 4.8 | 6.4 | 0.00 | 0.00 | 0.00 | 50 | 1014.0 |
| 20260507024628 | 5 | 95 | 3.2 | 8.0 | 0.00 | 0.00 | 0.00 | 49 | 1014.1 |
| 20260507024125 | 6 | 58 | 6.4 | 8.0 | 0.00 | 0.00 | 0.00 | 49 | 1014.1 |
| 20260507023621 | 6 | 59 | 9.7 | 9.7 | 0.00 | 0.00 | 0.00 | 48 | 1014.0 |
| 20260507023119 | 6 | 45 | 6.4 | 9.7 | 0.00 | 0.00 | 0.00 | 48 | 1014.2 |
| 20260507022615 | 6 | 51 | 4.8 | 8.0 | 0.00 | 0.00 | 0.00 | 49 | 1014.1 |
| 20260507022110 | 6 | 38 | 4.8 | 9.7 | 0.00 | 0.00 | 0.00 | 48 | 1013.9 |
| 20260507021607 | 6 | 54 | 4.8 | 6.4 | 0.00 | 0.00 | 0.00 | 47 | 1013.9 |
| 20260507021103 | 7 | 47 | 4.8 | 8.0 | 0.00 | 0.00 | 0.00 | 46 | 1014.0 |
| 20260507020602 | 7 | 67 | 4.8 | 8.0 | 0.00 | 0.00 | 0.00 | 45 | 1014.0 |
| 20260507020057 | 7 | 42 | 4.8 | 9.7 | 0.00 | 0.00 | 0.00 | 45 | 1013.9 |
| 20260507015556 | 7 | 36 | 4.8 | 8.0 | 0.00 | 0.00 | 0.00 | 44 | 1014.1 |
| 20260507015053 | 7 | 73 | 9.7 | 9.7 | 0.00 | 0.00 | 0.00 | 44 | 1014.1 |
| 20260507014550 | 8 | 55 | 0.0 | 9.7 | 0.00 | 0.00 | 0.00 | 44 | 1014.0 |
| 20260507014045 | 8 | 116 | 4.8 | 8.0 | 0.00 | 0.00 | 0.00 | 44 | 1014.1 |
| 20260507013542 | 8 | 45 | 9.7 | 9.7 | 0.00 | 0.00 | 0.00 | 44 | 1013.8 |
| 20260507013039 | 8 | 66 | 6.4 | 8.0 | 0.00 | 0.00 | 0.00 | 43 | 1013.9 |
| 20260507012537 | 8 | 46 | 8.0 | 11.3 | 0.00 | 0.00 | 0.00 | 42 | 1013.9 |
| 20260507012032 | 8 | 71 | 4.8 | 6.4 | 0.00 | 0.00 | 0.00 | 42 | 1014.0 |
| 20260507011530 | 8 | 60 | 4.8 | 6.4 | 0.00 | 0.00 | 0.00 | 41 | 1013.8 |
| 20260507011026 | 9 | 55 | 3.2 | 8.0 | 0.00 | 0.00 | 0.00 | 42 | 1014.0 |
| 20260507010520 | 9 | 78 | 4.8 | 6.4 | 0.00 | 0.00 | 0.00 | 43 | 1014.0 |
| 20260507010017 | 9 | 63 | 4.8 | 6.4 | 0.00 | 0.00 | 0.00 | 42 | 1014.1 |
| 20260507005515 | 9 | 33 | 4.8 | 8.0 | 0.00 | 0.00 | 0.00 | 40 | 1014.0 |
| 20260507005011 | 10 | 40 | 4.8 | 11.3 | 0.00 | 0.00 | 0.00 | 38 | 1014.1 |
| 20260507004508 | 10 | 32 | 6.4 | 8.0 | 0.00 | 0.00 | 0.00 | 38 | 1014.2 |
| 20260507004006 | 10 | 17 | 4.8 | 11.3 | 0.00 | 0.00 | 0.00 | 39 | 1014.1 |
| 20260507003501 | 10 | 30 | 6.4 | 9.7 | 0.00 | 0.00 | 0.00 | 38 | 1014.2 |
| 20260507002955 | 10 | 15 | 4.8 | 14.5 | 0.00 | 0.00 | 0.00 | 37 | 1014.2 |
| 20260507002453 | 11 | 18 | 6.4 | 14.5 | 0.00 | 0.00 | 0.00 | 36 | 1014.2 |
| 20260507001949 | 11 | 353 | 3.2 | 9.7 | 0.00 | 0.00 | 0.00 | 36 | 1014.0 |
| 20260507001446 | 10 | 17 | 0.0 | 14.5 | 0.00 | 0.00 | 0.00 | 36 | 1014.2 |
| 20260507000944 | 11 | 18 | 4.8 | 9.7 | 0.00 | 0.00 | 0.00 | 34 | 1014.3 |
| 20260507000439 | 11 | 17 | 3.2 | 14.5 | 0.00 | 0.00 | 0.00 | 33 | 1014.3 |
| 20260506235935 | 11 | 317 | 8.0 | 8.0 | 0.00 | 0.00 | 0.00 | 34 | 1014.1 |
| 20260506235432 | 11 | 19 | 3.2 | 4.8 | 0.00 | 0.00 | 0.00 | 33 | 1014.1 |
| 20260506234927 | 11 | 298 | 11.3 | 19.3 | 0.00 | 0.00 | 0.00 | 35 | 1014.3 |
| 20260506234425 | 11 | 23 | 11.3 | 12.9 | 0.00 | 0.00 | 0.00 | 34 | 1014.3 |
| 20260506233923 | 11 | 353 | 6.4 | 19.3 | 0.00 | 0.00 | 0.00 | 34 | 1014.4 |
| 20260506233419 | 11 | 334 | 9.7 | 17.7 | 0.00 | 0.00 | 0.00 | 34 | 1014.4 |
| 20260506232916 | 11 | 343 | 8.0 | 19.3 | 0.00 | 0.00 | 0.00 | 34 | 1014.3 |
| 20260506232412 | 11 | 31 | 6.4 | 14.5 | 0.00 | 0.00 | 0.00 | 36 | 1014.4 |
| 20260506231908 | 11 | 50 | 4.8 | 11.3 | 0.00 | 0.00 | 0.00 | 36 | 1014.5 |
| 20260506231406 | 11 | 350 | 8.0 | 12.9 | 0.00 | 0.00 | 0.00 | 34 | 1014.9 |
| 20260506230903 | 11 | 341 | 6.4 | 17.7 | 0.00 | 0.00 | 0.00 | 34 | 1014.5 |
| 20260506230359 | 10 | 327 | 17.7 | 24.1 | 0.00 | 0.00 | 0.00 | 35 | 1014.6 |
| 20260506225856 | 11 | 340 | 4.8 | 20.9 | 0.00 | 0.00 | 0.00 | 36 | 1014.6 |
| 20260506225353 | 11 | 330 | 11.3 | 12.9 | 0.00 | 0.00 | 0.00 | 35 | 1014.9 |
| 20260506224850 | 11 | 15 | 8.0 | 14.5 | 0.00 | 0.00 | 0.00 | 33 | 1014.9 |
| 20260506224348 | 12 | 0 | 3.2 | 17.7 | 0.00 | 0.00 | 0.00 | 35 | 1014.9 |
| 20260506223844 | 12 | 307 | 4.8 | 12.9 | 0.00 | 0.00 | 0.00 | 33 | 1014.9 |
| 20260506223339 | 12 | 319 | 3.2 | 24.1 | 0.00 | 0.00 | 0.00 | 35 | 1014.9 |
| 20260506222836 | 11 | 138 | 4.8 | 11.3 | 0.00 | 0.00 | 0.00 | 32 | 1015.1 |
| 20260506222332 | 12 | 208 | 8.0 | 8.0 | 0.00 | 0.00 | 0.00 | 33 | 1015.0 |
| 20260506221830 | 11 | 109 | 4.8 | 9.7 | 0.00 | 0.00 | 0.00 | 35 | 1014.9 |
| 20260506221327 | 12 | 40 | 6.4 | 16.1 | 0.00 | 0.00 | 0.00 | 34 | 1015.1 |
| 20260506220825 | 12 | 0 | 1.6 | 6.4 | 0.00 | 0.00 | 0.00 | 36 | 1015.1 |
| 20260506220320 | 11 | 341 | 9.7 | 20.9 | 0.00 | 0.00 | 0.00 | 35 | 1015.2 |
| 20260506215817 | 11 | 306 | 14.5 | 17.7 | 0.00 | 0.00 | 0.00 | 35 | 1015.1 |
| 20260506215313 | 11 | 6 | 6.4 | 8.0 | 0.00 | 0.00 | 0.00 | 35 | 1015.2 |
| 20260506214809 | 12 | 225 | 6.4 | 16.1 | 0.00 | 0.00 | 0.00 | 36 | 1015.4 |
| 20260506214306 | 11 | 300 | 8.0 | 17.7 | 0.00 | 0.00 | 0.00 | 36 | 1015.6 |
| 20260506213804 | 11 | 237 | 8.0 | 8.0 | 0.00 | 0.00 | 0.00 | 35 | 1015.7 |
| 20260506213300 | 12 | 292 | 11.3 | 20.9 | 0.00 | 0.00 | 0.00 | 33 | 1015.6 |
| 20260506212758 | 11 | 180 | 3.2 | 14.5 | 0.00 | 0.00 | 0.00 | 35 | 1015.7 |
| 20260506212254 | 11 | 327 | 4.8 | 16.1 | 0.00 | 0.00 | 0.00 | 37 | 1015.9 |
| 20260506211749 | 10 | 348 | 4.8 | 14.5 | 0.00 | 0.00 | 0.00 | 36 | 1015.8 |
| 20260506211245 | 11 | 290 | 11.3 | 17.7 | 0.00 | 0.00 | 0.00 | 36 | 1016.0 |
| 20260506210743 | 11 | 341 | 6.4 | 17.7 | 0.00 | 0.00 | 0.00 | 36 | 1016.2 |
| 20260506210239 | 10 | 324 | 4.8 | 14.5 | 0.00 | 0.00 | 0.00 | 37 | 1016.2 |
| 20260506205736 | 11 | 302 | 6.4 | 25.7 | 0.00 | 0.00 | 0.00 | 38 | 1016.1 |
| 20260506205232 | 11 | 205 | 9.7 | 19.3 | 0.00 | 0.00 | 0.00 | 35 | 1016.2 |
| 20260506204729 | 11 | 234 | 6.4 | 8.0 | 0.00 | 0.00 | 0.00 | 35 | 1016.2 |
| 20260506204226 | 11 | 27 | 9.7 | 14.5 | 0.00 | 0.00 | 0.00 | 37 | 1016.4 |
| 20260506203724 | 11 | 217 | 16.1 | 16.1 | 0.00 | 0.00 | 0.00 | 36 | 1016.4 |
| 20260506203221 | 11 | 19 | 8.0 | 12.9 | 0.00 | 0.00 | 0.00 | 37 | 1016.4 |
| 20260506202719 | 11 | 342 | 12.9 | 19.3 | 0.00 | 0.00 | 0.00 | 36 | 1016.7 |
| 20260506202215 | 10 | 317 | 4.8 | 11.3 | 0.00 | 0.00 | 0.00 | 39 | 1016.8 |
| 20260506201712 | 10 | 285 | 0.0 | 14.5 | 0.00 | 0.00 | 0.00 | 38 | 1016.8 |
| 20260506201209 | 9 | 300 | 3.2 | 16.1 | 0.00 | 0.00 | 0.00 | 39 | 1016.8 |
| 20260506200705 | 10 | 19 | 9.7 | 24.1 | 0.00 | 0.00 | 0.00 | 38 | 1017.0 |
| 20260506200203 | 10 | 339 | 3.2 | 8.0 | 0.00 | 0.00 | 0.00 | 37 | 1016.7 |
| 20260506195659 | 10 | 356 | 9.7 | 16.1 | 0.00 | 0.00 | 0.00 | 38 | 1016.9 |
| 20260506195155 | 10 | 236 | 4.8 | 11.3 | 0.00 | 0.00 | 0.00 | 38 | 1017.1 |
| 20260506194653 | 10 | 248 | 9.7 | 12.9 | 0.00 | 0.00 | 0.00 | 38 | 1017.1 |
| 20260506194149 | 10 | 296 | 11.3 | 17.7 | 0.00 | 0.00 | 0.00 | 38 | 1017.1 |
| 20260506193647 | 11 | 278 | 8.0 | 17.7 | 0.00 | 0.00 | 0.00 | 39 | 1017.0 |
| 20260506193143 | 9 | 259 | 4.8 | 9.7 | 0.00 | 0.00 | 0.00 | 39 | 1017.2 |
| 20260506192640 | 10 | 332 | 9.7 | 17.7 | 0.00 | 0.00 | 0.00 | 40 | 1017.4 |
| 20260506192136 | 9 | 0 | 6.4 | 12.9 | 0.00 | 0.00 | 0.00 | 41 | 1017.4 |
| 20260506191634 | 8 | 358 | 4.8 | 20.9 | 0.00 | 0.00 | 0.00 | 40 | 1017.3 |
| 20260506191129 | 9 | 330 | 12.9 | 14.5 | 0.00 | 0.00 | 0.00 | 41 | 1017.5 |
| 20260506190627 | 9 | 206 | 3.2 | 9.7 | 0.00 | 0.00 | 0.00 | 41 | 1017.3 |
| 20260506190123 | 9 | 341 | 9.7 | 24.1 | 0.00 | 0.00 | 0.00 | 39 | 1017.6 |
| 20260506185621 | 10 | 279 | 6.4 | 17.7 | 0.00 | 0.00 | 0.00 | 39 | 1017.5 |
| 20260506185117 | 10 | 270 | 3.2 | 11.3 | 0.00 | 0.00 | 0.00 | 41 | 1017.5 |
| 20260506184614 | 8 | 320 | 6.4 | 14.5 | 0.00 | 0.00 | 0.00 | 41 | 1017.5 |
| 20260506184111 | 8 | 242 | 9.7 | 20.9 | 0.00 | 0.00 | 0.00 | 41 | 1017.6 |
| 20260506183608 | 8 | 247 | 8.0 | 17.7 | 0.00 | 0.00 | 0.00 | 41 | 1017.8 |
| 20260506183104 | 9 | 311 | 8.0 | 17.7 | 0.00 | 0.00 | 0.00 | 42 | 1018.0 |
| 20260506182602 | 8 | 344 | 14.5 | 30.6 | 0.00 | 0.00 | 0.00 | 42 | 1017.9 |
| 20260506182058 | 9 | 220 | 4.8 | 12.9 | 0.00 | 0.00 | 0.00 | 40 | 1018.0 |
| 20260506181556 | 8 | 298 | 4.8 | 20.9 | 0.00 | 0.00 | 0.00 | 41 | 1018.2 |
| 20260506181053 | 10 | 317 | 4.8 | 19.3 | 0.00 | 0.00 | 0.00 | 42 | 1018.1 |
| 20260506180550 | 10 | 213 | 9.7 | 24.1 | 0.00 | 0.00 | 0.00 | 41 | 1018.2 |
| 20260506180046 | 8 | 219 | 8.0 | 29.0 | 0.00 | 0.00 | 0.00 | 44 | 1018.2 |
| 20260506175543 | 8 | 236 | 9.7 | 16.1 | 0.00 | 0.00 | 0.00 | 43 | 1018.5 |
| 20260506175039 | 8 | 289 | 4.8 | 17.7 | 0.00 | 0.00 | 0.00 | 42 | 1018.6 |
| 20260506174538 | 9 | 198 | 8.0 | 12.9 | 0.00 | 0.00 | 0.00 | 42 | 1018.7 |
| 20260506174033 | 7 | 338 | 6.4 | 25.7 | 0.00 | 0.00 | 0.00 | 43 | 1018.8 |
| 20260506173532 | 8 | 237 | 1.6 | 16.1 | 0.00 | 0.00 | 0.00 | 41 | 1018.7 |
| 20260506173028 | 8 | 297 | 4.8 | 19.3 | 0.00 | 0.00 | 0.00 | 44 | 1018.8 |
| 20260506172526 | 7 | 26 | 9.7 | 16.1 | 0.00 | 0.00 | 0.00 | 45 | 1018.5 |
| 20260506172022 | 8 | 223 | 8.0 | 9.7 | 0.00 | 0.00 | 0.00 | 42 | 1018.8 |
| 20260506171519 | 8 | 220 | 4.8 | 16.1 | 0.00 | 0.00 | 0.00 | 44 | 1018.9 |
| 20260506171017 | 7 | 101 | 3.2 | 17.7 | 0.00 | 0.00 | 0.00 | 43 | 1018.8 |
| 20260506170514 | 8 | 308 | 8.0 | 12.9 | 0.00 | 0.00 | 0.00 | 46 | 1019.0 |
| 20260506170006 | 7 | 278 | 4.8 | 16.1 | 0.00 | 0.00 | 0.00 | 45 | 1019.3 |
| 20260506165504 | 8 | 277 | 6.4 | 27.4 | 0.00 | 0.00 | 0.00 | 43 | 1018.8 |
| 20260506165000 | 8 | 201 | 4.8 | 11.3 | 0.00 | 0.00 | 0.00 | 45 | 1019.2 |
| 20260506164456 | 8 | 235 | 4.8 | 20.9 | 0.00 | 0.00 | 0.00 | 44 | 1019.1 |
| 20260506163954 | 7 | 353 | 3.2 | 16.1 | 0.00 | 0.00 | 0.00 | 46 | 1019.1 |
| 20260506163449 | 7 | 344 | 6.4 | 11.3 | 0.00 | 0.00 | 0.00 | 44 | 1019.3 |
| 20260506162944 | 7 | 337 | 14.5 | 24.1 | 0.00 | 0.00 | 0.00 | 44 | 1019.4 |
| 20260506162442 | 6 | 348 | 16.1 | 19.3 | 0.00 | 0.00 | 0.00 | 47 | 1019.6 |
| 20260506161939 | 7 | 206 | 8.0 | 14.5 | 0.00 | 0.00 | 0.00 | 48 | 1019.5 |
| 20260506161437 | 6 | 348 | 3.2 | 17.7 | 0.00 | 0.00 | 0.00 | 48 | 1019.4 |
| 20260506160934 | 7 | 255 | 11.3 | 16.1 | 0.00 | 0.00 | 0.00 | 47 | 1019.6 |
| 20260506160432 | 7 | 210 | 11.3 | 20.9 | 0.00 | 0.00 | 0.00 | 47 | 1019.5 |
| 20260506155929 | 6 | 82 | 1.6 | 14.5 | 0.00 | 0.00 | 0.00 | 48 | 1019.7 |
| 20260506155426 | 6 | 289 | 6.4 | 11.3 | 0.00 | 0.00 | 0.00 | 48 | 1019.6 |
| 20260506153548 | 6 | 230 | 8.0 | 9.7 | 0.00 | 0.00 | 0.00 | 48 | 1019.6 |
| 20260506153045 | 6 | 270 | 3.2 | 12.9 | 0.00 | 0.00 | 0.00 | 49 | 1019.7 |
| 20260506152542 | 6 | 306 | 9.7 | 20.9 | 0.00 | 0.00 | 0.00 | 49 | 1019.8 |
| 20260506152040 | 5 | 285 | 0.0 | 11.3 | 0.00 | 0.00 | 0.00 | 50 | 1019.9 |
| 20260506151538 | 5 | 358 | 11.3 | 14.5 | 0.00 | 0.00 | 0.00 | 52 | 1019.8 |
| 20260506151035 | 5 | 359 | 8.0 | 14.5 | 0.00 | 0.00 | 0.00 | 51 | 1019.7 |
| 20260506150531 | 5 | 2 | 4.8 | 8.0 | 0.00 | 0.00 | 0.00 | 51 | 1019.9 |
| 20260506150028 | 5 | 251 | 0.0 | 12.9 | 0.00 | 0.00 | 0.00 | 53 | 1019.7 |
| 20260506145525 | 5 | 202 | 8.0 | 11.3 | 0.00 | 0.00 | 0.00 | 53 | 1019.8 |
| 20260506145023 | 5 | 18 | 1.6 | 8.0 | 0.00 | 0.00 | 0.00 | 60 | 1020.0 |
| 20260506144519 | 4 | 9 | 3.2 | 9.7 | 0.00 | 0.00 | 0.00 | 59 | 1020.0 |
| 20260506144017 | 4 | 32 | 6.4 | 11.3 | 0.00 | 0.00 | 0.00 | 60 | 1019.9 |
| 20260506143514 | 3 | 356 | 3.2 | 4.8 | 0.00 | 0.00 | 0.00 | 63 | 1019.9 |
| 20260506143013 | 3 | 133 | 0.0 | 4.8 | 0.00 | 0.00 | 0.00 | 62 | 1019.8 |
| 20260506142510 | 3 | 352 | 3.2 | 11.3 | 0.00 | 0.00 | 0.00 | 64 | 1020.0 |
| 20260506142008 | 3 | 31 | 8.0 | 8.0 | 0.00 | 0.00 | 0.00 | 63 | 1020.2 |
| 20260506141505 | 3 | 180 | 1.6 | 3.2 | 0.00 | 0.00 | 0.00 | 63 | 1019.9 |
| 20260506141004 | 2 | 323 | 0.0 | 4.8 | 0.00 | 0.00 | 0.00 | 64 | 1019.9 |